sensor_id;sensor_type;location;lat;lon;timestamp;pressure;altitude;pressure_sealevel;temperature;humidity
71791;BME280;59638;52.126;5.434;2023-03-21T00:00:28;101769.72;;;8.83;100.00
71791;BME280;59638;52.126;5.434;2023-03-21T00:02:54;101769.72;;;8.83;100.00
71791;BME280;59638;52.126;5.434;2023-03-21T00:05:21;101768.03;;;8.82;100.00
71791;BME280;59638;52.126;5.434;2023-03-21T00:07:47;101766.34;;;8.81;100.00
71791;BME280;59638;52.126;5.434;2023-03-21T00:10:14;101766.34;;;8.81;100.00
71791;BME280;59638;52.126;5.434;2023-03-21T00:12:55;101756.78;;;8.80;100.00
71791;BME280;59638;52.126;5.434;2023-03-21T00:15:24;101765.63;;;8.79;100.00
71791;BME280;59638;52.126;5.434;2023-03-21T00:18:03;101756.88;;;8.79;100.00
71791;BME280;59638;52.126;5.434;2023-03-21T00:20:30;101757.72;;;8.79;100.00
71791;BME280;59638;52.126;5.434;2023-03-21T00:23:00;101755.16;;;8.78;100.00
71791;BME280;59638;52.126;5.434;2023-03-21T00:25:27;101750.78;;;8.78;100.00
71791;BME280;59638;52.126;5.434;2023-03-21T00:27:53;101753.41;;;8.78;100.00
71791;BME280;59638;52.126;5.434;2023-03-21T00:30:33;101745.50;;;8.78;100.00
71791;BME280;59638;52.126;5.434;2023-03-21T00:33:00;101752.66;;;8.76;100.00
71791;BME280;59638;52.126;5.434;2023-03-21T00:35:38;101750.97;;;8.75;100.00
71791;BME280;59638;52.126;5.434;2023-03-21T00:38:25;101758.03;;;8.75;100.00
71791;BME280;59638;52.126;5.434;2023-03-21T00:40:52;101754.56;;;8.74;100.00
71791;BME280;59638;52.126;5.434;2023-03-21T00:43:19;101749.28;;;8.74;100.00
71791;BME280;59638;52.126;5.434;2023-03-21T00:45:49;101730.97;;;8.73;100.00
71791;BME280;59638;52.126;5.434;2023-03-21T00:48:17;101740.66;;;8.72;100.00
71791;BME280;59638;52.126;5.434;2023-03-21T00:50:45;101739.91;;;8.70;100.00
71791;BME280;59638;52.126;5.434;2023-03-21T00:53:13;101744.22;;;8.71;100.00
71791;BME280;59638;52.126;5.434;2023-03-21T00:55:40;101732.00;;;8.70;100.00
71791;BME280;59638;52.126;5.434;2023-03-21T00:58:07;101732.94;;;8.69;100.00
71791;BME280;59638;52.126;5.434;2023-03-21T01:00:33;101731.16;;;8.69;100.00
71791;BME280;59638;52.126;5.434;2023-03-21T01:03:04;101725.06;;;8.69;100.00
71791;BME280;59638;52.126;5.434;2023-03-21T01:05:49;101718.09;;;8.68;100.00
71791;BME280;59638;52.126;5.434;2023-03-21T01:08:36;101716.31;;;8.68;100.00
71791;BME280;59638;52.126;5.434;2023-03-21T01:11:19;101714.53;;;8.69;100.00
71791;BME280;59638;52.126;5.434;2023-03-21T01:13:46;101711.91;;;8.69;100.00
71791;BME280;59638;52.126;5.434;2023-03-21T01:16:23;101708.41;;;8.68;100.00
71791;BME280;59638;52.126;5.434;2023-03-21T01:18:50;101710.09;;;8.69;100.00
71791;BME280;59638;52.126;5.434;2023-03-21T01:21:17;101706.63;;;8.69;100.00
71791;BME280;59638;52.126;5.434;2023-03-21T01:23:43;101706.63;;;8.69;100.00
71791;BME280;59638;52.126;5.434;2023-03-21T01:26:11;101701.38;;;8.69;100.00
71791;BME280;59638;52.126;5.434;2023-03-21T01:28:40;101702.31;;;8.68;100.00
71791;BME280;59638;52.126;5.434;2023-03-21T01:31:07;101703.16;;;8.68;100.00
71791;BME280;59638;52.126;5.434;2023-03-21T01:33:35;101693.47;;;8.69;100.00
71791;BME280;59638;52.126;5.434;2023-03-21T01:36:02;101702.31;;;8.68;100.00
71791;BME280;59638;52.126;5.434;2023-03-21T01:38:39;101702.31;;;8.68;100.00
71791;BME280;59638;52.126;5.434;2023-03-21T01:41:07;101689.16;;;8.68;100.00
71791;BME280;59638;52.126;5.434;2023-03-21T01:43:45;101692.75;;;8.67;100.00
71791;BME280;59638;52.126;5.434;2023-03-21T01:46:33;101686.72;;;8.65;100.00
71791;BME280;59638;52.126;5.434;2023-03-21T01:49:26;101679.78;;;8.64;100.00
71791;BME280;59638;52.126;5.434;2023-03-21T01:52:05;101682.41;;;8.64;100.00
71791;BME280;59638;52.126;5.434;2023-03-21T01:54:41;101678.09;;;8.63;100.00
71791;BME280;59638;52.126;5.434;2023-03-21T01:57:12;101683.34;;;8.63;100.00
71791;BME280;59638;52.126;5.434;2023-03-21T01:59:44;101673.78;;;8.62;100.00
71791;BME280;59638;52.126;5.434;2023-03-21T02:02:24;101670.31;;;8.61;100.00
71791;BME280;59638;52.126;5.434;2023-03-21T02:04:52;101667.78;;;8.60;100.00
71791;BME280;59638;52.126;5.434;2023-03-21T02:07:33;101668.75;;;8.59;100.00
71791;BME280;59638;52.126;5.434;2023-03-21T02:10:04;101650.31;;;8.59;100.00
71791;BME280;59638;52.126;5.434;2023-03-21T02:12:33;101654.81;;;8.57;100.00
71791;BME280;59638;52.126;5.434;2023-03-21T02:14:59;101648.84;;;8.55;100.00
71791;BME280;59638;52.126;5.434;2023-03-21T02:37:47;101636.63;;;8.54;100.00
71791;BME280;59638;52.126;5.434;2023-03-21T02:40:31;101642.84;;;8.53;100.00
71791;BME280;59638;52.126;5.434;2023-03-21T02:43:11;101626.09;;;8.54;100.00
71791;BME280;59638;52.126;5.434;2023-03-21T02:45:52;101632.31;;;8.53;100.00
71791;BME280;59638;52.126;5.434;2023-03-21T02:48:42;101620.00;;;8.53;100.00
71791;BME280;59638;52.126;5.434;2023-03-21T02:51:19;101624.44;;;8.53;100.00
71791;BME280;59638;52.126;5.434;2023-03-21T02:53:51;101625.25;;;8.53;100.00
71791;BME280;59638;52.126;5.434;2023-03-21T02:56:38;101611.28;;;8.53;100.00
71791;BME280;59638;52.126;5.434;2023-03-21T02:59:06;101619.16;;;8.53;100.00
71791;BME280;59638;52.126;5.434;2023-03-21T03:01:34;101618.22;;;8.54;100.00
71791;BME280;59638;52.126;5.434;2023-03-21T03:04:00;101619.16;;;8.53;100.00
71791;BME280;59638;52.126;5.434;2023-03-21T03:06:36;101618.22;;;8.54;100.00
71791;BME280;59638;52.126;5.434;2023-03-21T03:09:30;101616.53;;;8.53;100.00
71791;BME280;59638;52.126;5.434;2023-03-21T03:12:26;101618.22;;;8.54;100.00
71791;BME280;59638;52.126;5.434;2023-03-21T03:15:12;101618.31;;;8.52;100.00
71791;BME280;59638;52.126;5.434;2023-03-21T03:20:27;101608.84;;;8.50;100.00
71791;BME280;59638;52.126;5.434;2023-03-21T03:25:34;101608.84;;;8.50;100.00
71791;BME280;59638;52.126;5.434;2023-03-21T03:28:11;101607.16;;;8.49;100.00
71791;BME280;59638;52.126;5.434;2023-03-21T03:30:39;101608.00;;;8.49;100.00
71791;BME280;59638;52.126;5.434;2023-03-21T03:33:23;101603.69;;;8.48;100.00
71791;BME280;59638;52.126;5.434;2023-03-21T03:35:52;101610.72;;;8.48;100.00
71791;BME280;59638;52.126;5.434;2023-03-21T03:38:33;101605.47;;;8.48;100.00
71791;BME280;59638;52.126;5.434;2023-03-21T03:41:08;101606.44;;;8.47;100.00
71791;BME280;59638;52.126;5.434;2023-03-21T03:43:44;101605.47;;;8.48;100.00
71791;BME280;59638;52.126;5.434;2023-03-21T03:46:17;101599.56;;;8.44;100.00
71791;BME280;59638;52.126;5.434;2023-03-21T03:48:57;101607.38;;;8.46;100.00
71791;BME280;59638;52.126;5.434;2023-03-21T03:51:34;101596.84;;;8.46;100.00
71791;BME280;59638;52.126;5.434;2023-03-21T03:54:07;101599.47;;;8.46;100.00
71791;BME280;59638;52.126;5.434;2023-03-21T03:56:35;101598.72;;;8.43;100.00
71791;BME280;59638;52.126;5.434;2023-03-21T03:59:03;101590.84;;;8.43;100.00
71791;BME280;59638;52.126;5.434;2023-03-21T04:01:30;101595.97;;;8.45;100.00
71791;BME280;59638;52.126;5.434;2023-03-21T04:03:56;101590.09;;;8.41;100.00
71791;BME280;59638;52.126;5.434;2023-03-21T04:06:38;101586.53;;;8.42;100.00
71791;BME280;59638;52.126;5.434;2023-03-21T04:09:04;101589.16;;;8.42;100.00
71791;BME280;59638;52.126;5.434;2023-03-21T04:11:46;101587.47;;;8.41;100.00
71791;BME280;59638;52.126;5.434;2023-03-21T04:14:13;101584.84;;;8.41;100.00
71791;BME280;59638;52.126;5.434;2023-03-21T04:16:39;101583.16;;;8.40;100.00
71791;BME280;59638;52.126;5.434;2023-03-21T04:19:05;101579.69;;;8.40;100.00
71791;BME280;59638;52.126;5.434;2023-03-21T04:21:32;101578.84;;;8.39;100.00
71791;BME280;59638;52.126;5.434;2023-03-21T04:23:59;101579.78;;;8.38;100.00
71791;BME280;59638;52.126;5.434;2023-03-21T04:26:25;101570.97;;;8.39;100.00
71791;BME280;59638;52.126;5.434;2023-03-21T04:28:58;101577.16;;;8.38;100.00
71791;BME280;59638;52.126;5.434;2023-03-21T04:31:26;101572.84;;;8.37;100.00
71791;BME280;59638;52.126;5.434;2023-03-21T04:33:53;101577.25;;;8.37;100.00
71791;BME280;59638;52.126;5.434;2023-03-21T04:36:21;101573.78;;;8.36;100.00
71791;BME280;59638;52.126;5.434;2023-03-21T04:38:52;101576.41;;;8.36;100.00
71791;BME280;59638;52.126;5.434;2023-03-21T04:41:19;101580.72;;;8.37;100.00
71791;BME280;59638;52.126;5.434;2023-03-21T04:43:45;101577.38;;;8.35;100.00
71791;BME280;59638;52.126;5.434;2023-03-21T04:46:12;101567.78;;;8.34;100.00
71791;BME280;59638;52.126;5.434;2023-03-21T04:48:39;101568.59;;;8.35;100.00
71791;BME280;59638;52.126;5.434;2023-03-21T04:51:05;101558.28;;;8.32;100.00
71791;BME280;59638;52.126;5.434;2023-03-21T04:53:32;101565.34;;;8.31;100.00
71791;BME280;59638;52.126;5.434;2023-03-21T04:55:58;101561.03;;;8.30;100.00
71791;BME280;59638;52.126;5.434;2023-03-21T04:58:25;101560.19;;;8.30;100.00
71791;BME280;59638;52.126;5.434;2023-03-21T05:00:52;101564.59;;;8.29;100.00
71791;BME280;59638;52.126;5.434;2023-03-21T05:03:19;101562.19;;;8.26;100.00
71791;BME280;59638;52.126;5.434;2023-03-21T05:05:46;101575.34;;;8.26;100.00
71791;BME280;59638;52.126;5.434;2023-03-21T05:08:14;101566.69;;;8.24;100.00
71791;BME280;59638;52.126;5.434;2023-03-21T05:10:41;101570.28;;;8.23;100.00
71791;BME280;59638;52.126;5.434;2023-03-21T05:13:08;101575.53;;;8.23;100.00
71791;BME280;59638;52.126;5.434;2023-03-21T05:15:34;101565.97;;;8.22;100.00
71791;BME280;59638;52.126;5.434;2023-03-21T05:18:01;101573.03;;;8.22;100.00
71791;BME280;59638;52.126;5.434;2023-03-21T05:20:38;101574.81;;;8.21;100.00
71791;BME280;59638;52.126;5.434;2023-03-21T05:23:11;101566.94;;;8.21;100.00
71791;BME280;59638;52.126;5.434;2023-03-21T05:25:38;101560.94;;;8.19;100.00
71791;BME280;59638;52.126;5.434;2023-03-21T05:28:06;101561.03;;;8.17;100.00
71791;BME280;59638;52.126;5.434;2023-03-21T05:30:33;101553.25;;;8.16;100.00
71791;BME280;59638;52.126;5.434;2023-03-21T05:33:00;101557.66;;;8.15;100.00
71791;BME280;59638;52.126;5.434;2023-03-21T05:35:27;101552.63;;;8.12;100.00
71791;BME280;59638;52.126;5.434;2023-03-21T05:37:53;101554.38;;;8.12;100.00
71791;BME280;59638;52.126;5.434;2023-03-21T05:40:20;101557.00;;;8.12;100.00
71791;BME280;59638;52.126;5.434;2023-03-21T05:42:47;101551.97;;;8.09;100.00
71791;BME280;59638;52.126;5.434;2023-03-21T05:45:14;101550.06;;;8.11;100.00
71791;BME280;59638;52.126;5.434;2023-03-21T05:47:41;101557.97;;;8.11;100.00
71791;BME280;59638;52.126;5.434;2023-03-21T05:50:08;101552.72;;;8.11;100.00
71791;BME280;59638;52.126;5.434;2023-03-21T05:52:34;101553.53;;;8.11;100.00
71791;BME280;59638;52.126;5.434;2023-03-21T05:55:01;101550.00;;;8.12;100.00
71791;BME280;59638;52.126;5.434;2023-03-21T05:57:27;101545.66;;;8.11;100.00
71791;BME280;59638;52.126;5.434;2023-03-21T05:59:54;101553.47;;;8.13;100.00
71791;BME280;59638;52.126;5.434;2023-03-21T06:02:21;101551.75;;;8.12;100.00
71791;BME280;59638;52.126;5.434;2023-03-21T06:04:47;101545.78;;;8.10;100.00
71791;BME280;59638;52.126;5.434;2023-03-21T06:07:14;101541.25;;;8.12;100.00
71791;BME280;59638;52.126;5.434;2023-03-21T06:09:40;101545.47;;;8.14;100.00
71791;BME280;59638;52.126;5.434;2023-03-21T06:12:07;101545.47;;;8.14;100.00
71791;BME280;59638;52.126;5.434;2023-03-21T06:14:33;101537.47;;;8.16;100.00
71791;BME280;59638;52.126;5.434;2023-03-21T06:16:59;101550.50;;;8.17;100.00
71791;BME280;59638;52.126;5.434;2023-03-21T06:19:26;101542.72;;;8.16;100.00
71791;BME280;59638;52.126;5.434;2023-03-21T06:21:52;101543.44;;;8.18;100.00
71791;BME280;59638;52.126;5.434;2023-03-21T06:24:20;101550.41;;;8.19;100.00
71791;BME280;59638;52.126;5.434;2023-03-21T06:26:46;101546.06;;;8.18;100.00
71791;BME280;59638;52.126;5.434;2023-03-21T06:29:13;101541.56;;;8.20;100.00
71791;BME280;59638;52.126;5.434;2023-03-21T06:31:40;101539.66;;;8.22;100.00
71791;BME280;59638;52.126;5.434;2023-03-21T06:34:07;101539.66;;;8.22;100.00
71791;BME280;59638;52.126;5.434;2023-03-21T06:36:35;101541.34;;;8.23;100.00
71791;BME280;59638;52.126;5.434;2023-03-21T06:39:02;101543.78;;;8.26;100.00
71791;BME280;59638;52.126;5.434;2023-03-21T06:41:29;101547.16;;;8.28;100.00
71791;BME280;59638;52.126;5.434;2023-03-21T06:43:55;101545.47;;;8.27;100.00
71791;BME280;59638;52.126;5.434;2023-03-21T06:46:21;101543.56;;;8.29;100.00
71791;BME280;59638;52.126;5.434;2023-03-21T06:48:48;101549.56;;;8.31;100.00
71791;BME280;59638;52.126;5.434;2023-03-21T06:51:14;101549.56;;;8.31;100.00
71791;BME280;59638;52.126;5.434;2023-03-21T06:53:41;101551.25;;;8.32;100.00
71791;BME280;59638;52.126;5.434;2023-03-21T06:56:09;101554.72;;;8.33;100.00
71791;BME280;59638;52.126;5.434;2023-03-21T06:58:36;101554.63;;;8.34;100.00
71791;BME280;59638;52.126;5.434;2023-03-21T07:01:03;101550.13;;;8.36;100.00
71791;BME280;59638;52.126;5.434;2023-03-21T07:03:29;101545.50;;;8.40;100.00
71791;BME280;59638;52.126;5.434;2023-03-21T07:05:56;101550.66;;;8.41;100.00
71791;BME280;59638;52.126;5.434;2023-03-21T07:08:23;101546.88;;;8.46;100.00
71791;BME280;59638;52.126;5.434;2023-03-21T07:10:49;101548.44;;;8.48;100.00
71791;BME280;59638;52.126;5.434;2023-03-21T07:13:16;101558.13;;;8.48;100.00
71791;BME280;59638;52.126;5.434;2023-03-21T07:15:42;101542.09;;;8.51;100.00
71791;BME280;59638;52.126;5.434;2023-03-21T07:18:09;101549.03;;;8.52;100.00
71791;BME280;59638;52.126;5.434;2023-03-21T07:20:35;101556.63;;;8.56;100.00
71791;BME280;59638;52.126;5.434;2023-03-21T07:23:04;101549.56;;;8.57;100.00
71791;BME280;59638;52.126;5.434;2023-03-21T07:25:30;101559.91;;;8.60;100.00
71791;BME280;59638;52.126;5.434;2023-03-21T07:27:57;101566.41;;;8.67;100.00
71791;BME280;59638;52.126;5.434;2023-03-21T07:30:23;101553.97;;;8.69;100.00
71791;BME280;59638;52.126;5.434;2023-03-21T07:32:50;101558.28;;;8.70;100.00
71791;BME280;59638;52.126;5.434;2023-03-21T07:35:18;101558.28;;;8.70;100.00
71791;BME280;59638;52.126;5.434;2023-03-21T07:37:44;101552.28;;;8.68;100.00
71791;BME280;59638;52.126;5.434;2023-03-21T07:40:11;101553.25;;;8.67;100.00
71791;BME280;59638;52.126;5.434;2023-03-21T07:42:39;101551.34;;;8.69;100.00
71791;BME280;59638;52.126;5.434;2023-03-21T07:45:07;101554.50;;;8.74;100.00
71791;BME280;59638;52.126;5.434;2023-03-21T07:47:34;101542.06;;;8.76;100.00
71791;BME280;59638;52.126;5.434;2023-03-21T07:50:01;101548.56;;;8.83;100.00
71791;BME280;59638;52.126;5.434;2023-03-21T07:52:31;101544.91;;;8.86;100.00
71791;BME280;59638;52.126;5.434;2023-03-21T07:54:58;101537.84;;;8.86;100.00
71791;BME280;59638;52.126;5.434;2023-03-21T07:57:24;101537.84;;;8.86;100.00
71791;BME280;59638;52.126;5.434;2023-03-21T07:59:51;101527.19;;;8.88;100.00
71791;BME280;59638;52.126;5.434;2023-03-21T08:02:18;101525.63;;;8.85;100.00
71791;BME280;59638;52.126;5.434;2023-03-21T08:04:44;101527.06;;;8.89;100.00
71791;BME280;59638;52.126;5.434;2023-03-21T08:07:11;101526.22;;;8.89;100.00
71791;BME280;59638;52.126;5.434;2023-03-21T08:09:38;101519.94;;;8.91;100.00
71791;BME280;59638;52.126;5.434;2023-03-21T08:12:05;101511.66;;;8.96;100.00
71791;BME280;59638;52.126;5.434;2023-03-21T08:14:33;101522.09;;;8.97;100.00
71791;BME280;59638;52.126;5.434;2023-03-21T08:17:02;101528.09;;;8.99;100.00
71791;BME280;59638;52.126;5.434;2023-03-21T08:19:29;101528.09;;;8.99;100.00
71791;BME280;59638;52.126;5.434;2023-03-21T08:21:56;101533.97;;;9.03;100.00
71791;BME280;59638;52.126;5.434;2023-03-21T08:24:27;101523.13;;;9.08;100.00
71791;BME280;59638;52.126;5.434;2023-03-21T08:26:53;101514.38;;;9.07;100.00
71791;BME280;59638;52.126;5.434;2023-03-21T08:29:20;101515.22;;;9.08;100.00
71791;BME280;59638;52.126;5.434;2023-03-21T08:31:47;101509.50;;;9.14;100.00
71791;BME280;59638;52.126;5.434;2023-03-21T08:34:13;101505.91;;;9.15;100.00
71791;BME280;59638;52.126;5.434;2023-03-21T08:36:40;101504.34;;;9.12;100.00
71791;BME280;59638;52.126;5.434;2023-03-21T08:39:07;101504.69;;;9.08;100.00
71791;BME280;59638;52.126;5.434;2023-03-21T08:41:35;101514.06;;;9.12;100.00
71791;BME280;59638;52.126;5.434;2023-03-21T08:44:03;101509.25;;;9.17;100.00
71791;BME280;59638;52.126;5.434;2023-03-21T08:46:30;101506.44;;;9.20;100.00
71791;BME280;59638;52.126;5.434;2023-03-21T08:48:56;101503.09;;;9.29;100.00
71791;BME280;59638;52.126;5.434;2023-03-21T08:51:23;101507.41;;;9.30;100.00
71791;BME280;59638;52.126;5.434;2023-03-21T08:53:49;101507.66;;;9.27;100.00
71791;BME280;59638;52.126;5.434;2023-03-21T08:56:16;101495.47;;;9.37;100.00
71791;BME280;59638;52.126;5.434;2023-03-21T08:58:43;101483.63;;;9.43;100.00
71791;BME280;59638;52.126;5.434;2023-03-21T09:01:10;101484.00;;;9.49;100.00
71791;BME280;59638;52.126;5.434;2023-03-21T09:03:41;101481.41;;;9.61;100.00
71791;BME280;59638;52.126;5.434;2023-03-21T09:06:08;101480.25;;;9.76;100.00
71791;BME280;59638;52.126;5.434;2023-03-21T09:08:39;101474.97;;;9.76;100.00
71791;BME280;59638;52.126;5.434;2023-03-21T09:11:08;101472.81;;;9.70;100.00
71791;BME280;59638;52.126;5.434;2023-03-21T09:13:34;101468.75;;;9.66;100.00
71791;BME280;59638;52.126;5.434;2023-03-21T09:16:01;101472.81;;;9.59;100.00
71791;BME280;59638;52.126;5.434;2023-03-21T09:18:27;101462.00;;;9.62;100.00
71791;BME280;59638;52.126;5.434;2023-03-21T09:21:16;101457.19;;;9.56;100.00
71791;BME280;59638;52.126;5.434;2023-03-21T09:23:43;101461.88;;;9.52;100.00
71791;BME280;59638;52.126;5.434;2023-03-21T09:26:10;101464.59;;;9.50;100.00
71791;BME280;59638;52.126;5.434;2023-03-21T09:28:37;101460.28;;;9.49;100.00
71791;BME280;59638;52.126;5.434;2023-03-21T09:31:04;101451.94;;;9.56;100.00
71791;BME280;59638;52.126;5.434;2023-03-21T09:33:31;101446.91;;;9.64;100.00
71791;BME280;59638;52.126;5.434;2023-03-21T09:35:58;101445.50;;;9.71;100.00
71791;BME280;59638;52.126;5.434;2023-03-21T09:38:26;101450.53;;;9.74;100.00
71791;BME280;59638;52.126;5.434;2023-03-21T09:41:08;101440.69;;;9.76;100.00
71791;BME280;59638;52.126;5.434;2023-03-21T09:49:06;101430.53;;;9.94;100.00
71791;BME280;59638;52.126;5.434;2023-03-21T09:51:45;101432.34;;;10.04;100.00
71791;BME280;59638;52.126;5.434;2023-03-21T09:54:24;101435.44;;;10.09;100.00
71791;BME280;59638;52.126;5.434;2023-03-21T09:56:54;101434.03;;;10.05;100.00
71791;BME280;59638;52.126;5.434;2023-03-21T09:59:36;101437.63;;;10.04;100.00
71791;BME280;59638;52.126;5.434;2023-03-21T10:02:42;101434.31;;;10.25;100.00
71791;BME280;59638;52.126;5.434;2023-03-21T10:05:17;101429.03;;;10.25;100.00
71791;BME280;59638;52.126;5.434;2023-03-21T10:10:25;101428.03;;;10.15;100.00
71791;BME280;59638;52.126;5.434;2023-03-21T10:12:55;101432.38;;;10.27;100.00
71791;BME280;59638;52.126;5.434;2023-03-21T10:15:24;101438.84;;;10.34;100.00
71791;BME280;59638;52.126;5.434;2023-03-21T10:18:01;101435.59;;;10.42;100.00
71791;BME280;59638;52.126;5.434;2023-03-21T10:20:33;101432.09;;;10.52;100.00
71791;BME280;59638;52.126;5.434;2023-03-21T10:23:04;101444.31;;;10.65;100.00
71791;BME280;59638;52.126;5.434;2023-03-21T10:25:34;101439.25;;;10.73;100.00
71791;BME280;59638;52.126;5.434;2023-03-21T10:28:05;101430.38;;;10.74;100.00
71791;BME280;59638;52.126;5.434;2023-03-21T10:30:48;101428.69;;;10.73;100.00
71791;BME280;59638;52.126;5.434;2023-03-21T10:33:18;101419.06;;;10.83;100.00
71791;BME280;59638;52.126;5.434;2023-03-21T10:35:50;101417.72;;;10.88;100.00
71791;BME280;59638;52.126;5.434;2023-03-21T10:38:20;101408.22;;;10.97;100.00
71791;BME280;59638;52.126;5.434;2023-03-21T10:40:48;101408.97;;;11.09;100.00
71791;BME280;59638;52.126;5.434;2023-03-21T10:43:19;101412.91;;;11.14;100.00
71791;BME280;59638;52.126;5.434;2023-03-21T10:45:56;101401.84;;;11.21;100.00
71791;BME280;59638;52.126;5.434;2023-03-21T10:48:23;101395.53;;;11.33;100.00
71791;BME280;59638;52.126;5.434;2023-03-21T10:50:53;101399.00;;;11.54;100.00
71791;BME280;59638;52.126;5.434;2023-03-21T10:53:32;101401.06;;;11.71;100.00
71791;BME280;59638;52.126;5.434;2023-03-21T10:56:01;101394.31;;;12.09;100.00
71791;BME280;59638;52.126;5.434;2023-03-21T10:58:36;101396.53;;;12.14;100.00
71791;BME280;59638;52.126;5.434;2023-03-21T11:01:07;101403.81;;;12.21;100.00
71791;BME280;59638;52.126;5.434;2023-03-21T11:03:37;101411.84;;;12.10;100.00
71791;BME280;59638;52.126;5.434;2023-03-21T11:08:57;101390.91;;;11.97;100.00
71791;BME280;59638;52.126;5.434;2023-03-21T11:11:28;101389.03;;;11.88;100.00
71791;BME280;59638;52.126;5.434;2023-03-21T11:14:01;101401.81;;;12.14;100.00
71791;BME280;59638;52.126;5.434;2023-03-21T11:16:40;101396.28;;;12.27;100.00
71791;BME280;59638;52.126;5.434;2023-03-21T11:19:29;101402.72;;;12.34;100.00
71791;BME280;59638;52.126;5.434;2023-03-21T11:21:58;101396.75;;;12.41;100.00
71791;BME280;59638;52.126;5.434;2023-03-21T11:24:27;101395.75;;;12.33;100.00
71791;BME280;59638;52.126;5.434;2023-03-21T11:26:56;101398.69;;;12.39;100.00
71791;BME280;59638;52.126;5.434;2023-03-21T11:29:33;101391.22;;;12.73;100.00
71791;BME280;59638;52.126;5.434;2023-03-21T11:32:25;101395.28;;;13.36;100.00
71791;BME280;59638;52.126;5.434;2023-03-21T11:35:17;101388.00;;;13.47;100.00
71791;BME280;59638;52.126;5.434;2023-03-21T11:37:50;101384.63;;;13.55;100.00
71791;BME280;59638;52.126;5.434;2023-03-21T11:42:56;101379.09;;;13.00;100.00
71791;BME280;59638;52.126;5.434;2023-03-21T11:45:26;101363.78;;;12.74;100.00
71791;BME280;59638;52.126;5.434;2023-03-21T11:47:55;101365.84;;;12.71;100.00
71791;BME280;59638;52.126;5.434;2023-03-21T12:03:57;101361.53;;;12.79;100.00
71791;BME280;59638;52.126;5.434;2023-03-21T12:06:38;101367.38;;;12.73;100.00
71791;BME280;59638;52.126;5.434;2023-03-21T12:12:13;101371.22;;;12.40;100.00
71791;BME280;59638;52.126;5.434;2023-03-21T12:26:21;101353.69;;;12.30;100.00
71791;BME280;59638;52.126;5.434;2023-03-21T12:37:06;101345.16;;;12.26;100.00
71791;BME280;59638;52.126;5.434;2023-03-21T12:39:37;101332.50;;;12.30;100.00
71791;BME280;59638;52.126;5.434;2023-03-21T12:45:10;101335.59;;;12.35;100.00
71791;BME280;59638;52.126;5.434;2023-03-21T12:47:43;101331.25;;;12.53;100.00
71791;BME280;59638;52.126;5.434;2023-03-21T12:50:18;101330.03;;;12.76;100.00
71791;BME280;59638;52.126;5.434;2023-03-21T12:52:51;101322.75;;;12.98;100.00
71791;BME280;59638;52.126;5.434;2023-03-21T12:55:22;101316.56;;;13.36;100.00
71791;BME280;59638;52.126;5.434;2023-03-21T12:58:05;101315.38;;;13.85;99.59
71791;BME280;59638;52.126;5.434;2023-03-21T13:00:40;101316.47;;;14.91;95.15
71791;BME280;59638;52.126;5.434;2023-03-21T13:03:15;101309.47;;;14.90;90.33
71791;BME280;59638;52.126;5.434;2023-03-21T13:05:57;101313.09;;;14.63;90.44
71791;BME280;59638;52.126;5.434;2023-03-21T13:08:34;101308.66;;;14.72;89.02
71791;BME280;59638;52.126;5.434;2023-03-21T13:11:04;101303.25;;;15.00;84.46
71791;BME280;59638;52.126;5.434;2023-03-21T13:13:43;101295.19;;;14.48;86.35
71791;BME280;59638;52.126;5.434;2023-03-21T13:21:54;101286.19;;;14.13;94.72
71791;BME280;59638;52.126;5.434;2023-03-21T13:24:36;101285.94;;;14.24;97.27
71791;BME280;59638;52.126;5.434;2023-03-21T13:27:18;101273.19;;;14.10;89.02
71791;BME280;59638;52.126;5.434;2023-03-21T13:29:50;101274.94;;;14.47;91.69
71791;BME280;59638;52.126;5.434;2023-03-21T13:32:33;101279.31;;;14.56;89.82
71791;BME280;59638;52.126;5.434;2023-03-21T13:37:56;101281.00;;;13.94;84.35
71791;BME280;59638;52.126;5.434;2023-03-21T13:40:33;101281.47;;;13.79;87.14
71791;BME280;59638;52.126;5.434;2023-03-21T13:43:00;101277.06;;;14.15;87.37
71791;BME280;59638;52.126;5.434;2023-03-21T13:45:43;101273.84;;;14.39;88.24
71791;BME280;59638;52.126;5.434;2023-03-21T13:59:34;101255.00;;;13.70;87.63
71791;BME280;59638;52.126;5.434;2023-03-21T14:02:29;101261.47;;;13.57;86.87
71791;BME280;59638;52.126;5.434;2023-03-21T14:05:06;101257.09;;;13.39;86.14
71791;BME280;59638;52.126;5.434;2023-03-21T14:07:40;101259.66;;;13.30;87.78
71791;BME280;59638;52.126;5.434;2023-03-21T14:10:18;101245.81;;;13.27;86.28
71791;BME280;59638;52.126;5.434;2023-03-21T14:12:46;101259.38;;;13.24;90.00
71791;BME280;59638;52.126;5.434;2023-03-21T14:15:25;101251.59;;;13.22;87.99
71791;BME280;59638;52.126;5.434;2023-03-21T14:18:00;101245.66;;;13.38;85.57
71791;BME280;59638;52.126;5.434;2023-03-21T14:20:54;101242.56;;;13.43;86.96
71791;BME280;59638;52.126;5.434;2023-03-21T14:23:22;101247.78;;;13.35;88.01
71791;BME280;59638;52.126;5.434;2023-03-21T14:25:49;101242.91;;;13.20;84.99
71791;BME280;59638;52.126;5.434;2023-03-21T14:28:27;101252.84;;;13.09;84.72
71791;BME280;59638;52.126;5.434;2023-03-21T14:30:59;101252.75;;;12.91;89.00
71791;BME280;59638;52.126;5.434;2023-03-21T14:33:37;101246.84;;;13.06;87.45
71791;BME280;59638;52.126;5.434;2023-03-21T14:36:09;101245.69;;;13.19;94.72
71791;BME280;59638;52.126;5.434;2023-03-21T14:38:39;101238.19;;;13.24;90.56
71791;BME280;59638;52.126;5.434;2023-03-21T14:41:21;101231.47;;;13.29;85.42
71791;BME280;59638;52.126;5.434;2023-03-21T14:46:37;101221.00;;;13.18;89.08
71791;BME280;59638;52.126;5.434;2023-03-21T14:49:34;101224.94;;;13.14;92.26